Air Navigation Services of Czech Republic
Airport: LKPR Updated:  13.11.2018 19:47:06  UTC
 METAR LKPR 13.11. 19:30 ...
METAR LKPR 131930Z 23011KT CAVOK 08/07 Q1028 NOSIG RMK REG QNH 1024=
 TAF LKPR 13.11. 17:00 ...
TAF LKPR 131700Z 1318/1500 23010KT 9999 SCT028      BECMG 1318/1320 CAVOK      PROB30 TEMPO 1318/1400 26012G22KT      BECMG 1412/1415 VRB02KT=